createdAt,value
2023-01-17T00:03:57.382Z,95594.56
2023-01-17T00:09:20.510Z,95578.69
2023-01-17T00:14:25.214Z,95577.69
2023-01-17T00:19:46.960Z,95583.63
2023-01-17T00:25:10.008Z,95572.72
2023-01-17T00:30:14.326Z,95564.41
2023-01-17T00:35:17.952Z,95575.50
2023-01-17T00:40:22.713Z,95574.13
2023-01-17T00:45:44.933Z,95576.91
2023-01-17T00:51:07.167Z,95575.50
2023-01-17T00:56:30.596Z,95571.56
2023-01-17T01:01:54.226Z,95572.53
2023-01-17T01:07:16.483Z,95574.34
2023-01-17T01:12:39.923Z,95579.91
2023-01-17T01:18:01.693Z,95583.25
2023-01-17T01:23:24.359Z,95578.91
2023-01-17T01:28:48.229Z,95563.84
2023-01-17T01:33:53.666Z,95556.09
2023-01-17T01:38:58.208Z,95548.16
2023-01-17T01:44:04.384Z,95561.06
2023-01-17T01:49:18.831Z,95564.44
2023-01-17T01:54:26.300Z,95563.84
2023-01-17T01:59:33.914Z,95567.97
2023-01-17T02:04:38.849Z,95570.72
2023-01-17T02:09:43.710Z,95554.06
2023-01-17T02:14:49.643Z,95559.53
2023-01-17T02:20:35.178Z,95570.66
2023-01-17T02:26:05.884Z,95571.06
2023-01-17T02:31:18.855Z,95573.84
2023-01-17T02:36:30.139Z,95556.00
2023-01-17T02:41:38.744Z,95546.63
2023-01-17T02:46:50.000Z,95548.84
2023-01-17T02:52:21.833Z,95543.97
2023-01-17T02:57:56.516Z,95537.47
2023-01-17T03:03:14.188Z,95532.50
2023-01-17T03:08:19.607Z,95543.56
2023-01-17T03:13:24.337Z,95537.78
2023-01-17T03:18:30.093Z,95546.81
2023-01-17T03:23:34.337Z,95557.28
2023-01-17T03:28:38.744Z,95540.97
2023-01-17T03:33:45.155Z,95551.97
2023-01-17T03:38:49.940Z,95542.81
2023-01-17T03:43:54.510Z,95548.09
2023-01-17T03:49:00.463Z,95556.56
2023-01-17T03:54:05.006Z,95557.28
2023-01-17T03:59:11.520Z,95560.63
2023-01-17T04:04:18.559Z,95578.97
2023-01-17T04:09:23.056Z,95583.06
2023-01-17T04:14:27.549Z,95588.16
2023-01-17T04:19:36.756Z,95594.47
2023-01-17T04:24:41.567Z,95599.06
2023-01-17T04:29:46.866Z,95599.66
2023-01-17T04:34:53.011Z,95594.78
2023-01-17T04:39:57.663Z,95599.31
2023-01-17T04:45:01.908Z,95610.00
2023-01-17T04:50:09.078Z,95613.34
2023-01-17T04:55:13.655Z,95610.00
2023-01-17T05:00:19.961Z,95611.78
2023-01-17T05:05:25.851Z,95625.63
2023-01-17T05:10:30.631Z,95629.53
2023-01-17T05:15:35.163Z,95634.41
2023-01-17T05:20:40.990Z,95633.38
2023-01-17T05:25:45.538Z,95641.09
2023-01-17T05:30:49.934Z,95636.47
2023-01-17T05:35:56.711Z,95633.66
2023-01-17T05:41:01.825Z,95643.94
2023-01-17T05:46:06.675Z,95645.09
2023-01-17T05:51:12.595Z,95649.06
2023-01-17T05:56:17.047Z,95642.53
2023-01-17T06:01:21.565Z,95641.28
2023-01-17T06:06:27.310Z,95654.50
2023-01-17T06:11:32.052Z,95667.34
2023-01-17T06:16:36.891Z,95656.47
2023-01-17T06:21:42.886Z,95666.50
2023-01-17T06:26:47.316Z,95665.50
2023-01-17T06:31:52.099Z,95665.16
2023-01-17T06:36:57.966Z,95660.75
2023-01-17T06:42:02.437Z,95669.50
2023-01-17T06:47:06.677Z,95664.38
2023-01-17T06:52:12.317Z,95671.09
2023-01-17T06:57:16.994Z,95679.84
2023-01-17T07:02:21.516Z,95676.56
2023-01-17T07:07:27.535Z,95662.19
2023-01-17T07:12:32.128Z,95671.56
2023-01-17T07:17:37.030Z,95678.34
2023-01-17T07:22:46.187Z,95683.75
2023-01-17T07:27:53.978Z,95692.94
2023-01-17T07:32:58.536Z,95691.03
2023-01-17T07:38:05.959Z,95688.72
2023-01-17T07:43:14.391Z,95699.06
2023-01-17T07:48:20.148Z,95700.56
2023-01-17T07:53:27.617Z,95693.03
2023-01-17T07:58:33.236Z,95684.63
2023-01-17T08:03:40.118Z,95683.69
2023-01-17T08:08:46.812Z,95682.16
2023-01-17T08:13:57.265Z,95690.34
2023-01-17T08:19:02.456Z,95697.94
2023-01-17T08:24:13.725Z,95699.75
2023-01-17T08:29:19.048Z,95710.25
2023-01-17T08:34:23.541Z,95711.09
2023-01-17T08:39:29.267Z,95726.94
2023-01-17T08:44:33.713Z,95722.47
2023-01-17T08:49:38.345Z,95723.50
2023-01-17T08:54:44.381Z,95732.84
2023-01-17T08:59:49.302Z,95733.13
2023-01-17T09:04:53.831Z,95736.28
2023-01-17T09:09:59.910Z,95736.75
2023-01-17T09:15:05.169Z,95745.69
2023-01-17T09:20:11.892Z,95750.75
2023-01-17T09:25:18.025Z,95753.53
2023-01-17T09:30:23.957Z,95764.34
2023-01-17T09:35:28.700Z,95760.41
2023-01-17T09:40:35.444Z,95749.56
2023-01-17T09:45:40.728Z,95741.25
2023-01-17T09:50:54.360Z,95742.28
2023-01-17T09:56:05.720Z,95744.50
2023-01-17T10:01:20.361Z,95747.13
2023-01-17T10:06:37.596Z,95744.75
2023-01-17T10:12:02.284Z,95765.59
2023-01-17T10:17:17.876Z,95757.50
2023-01-17T10:22:46.644Z,95748.53
2023-01-17T10:27:59.444Z,95750.13
2023-01-17T10:33:13.825Z,95740.41
2023-01-17T10:38:19.585Z,95737.22
2023-01-17T10:43:35.970Z,95742.38
2023-01-17T10:48:45.003Z,95741.00
2023-01-17T10:54:07.577Z,95751.13
2023-01-17T10:59:31.449Z,95754.13
2023-01-17T11:04:38.963Z,95737.16
2023-01-17T11:09:45.344Z,95745.91
2023-01-17T11:15:04.993Z,95762.91
2023-01-17T11:20:21.062Z,95757.53
2023-01-17T11:25:26.475Z,95765.72
2023-01-17T11:30:32.358Z,95765.06
2023-01-17T11:35:39.002Z,95767.22
2023-01-17T11:40:45.220Z,95758.63
2023-01-17T11:46:07.820Z,95760.44
2023-01-17T11:51:28.372Z,95750.81
2023-01-17T11:56:35.064Z,95749.56
2023-01-17T12:01:53.105Z,95741.63
2023-01-17T12:07:25.628Z,95735.53
2023-01-17T12:13:04.788Z,95728.41
2023-01-17T12:18:34.917Z,95731.91
2023-01-17T12:24:03.413Z,95734.50
2023-01-17T12:29:44.724Z,95726.16
2023-01-17T12:34:55.270Z,95725.19
2023-01-17T12:40:07.204Z,95731.34
2023-01-17T12:45:16.605Z,95721.34
2023-01-17T12:50:29.614Z,95722.81
2023-01-17T12:55:42.914Z,95736.94
2023-01-17T13:00:52.236Z,95744.56
2023-01-17T13:06:01.090Z,95756.31
2023-01-17T13:11:12.599Z,95774.22
2023-01-17T13:16:22.499Z,95775.16
2023-01-17T13:21:33.022Z,95765.97
2023-01-17T13:26:56.658Z,95773.69
2023-01-17T13:32:16.228Z,95777.47
2023-01-17T13:37:49.875Z,95773.53
2023-01-17T13:42:57.176Z,95782.75
2023-01-17T13:48:30.478Z,95785.56
2023-01-17T13:53:55.186Z,95785.59
2023-01-17T13:59:03.264Z,95795.78
2023-01-17T14:04:09.267Z,95796.59
2023-01-17T14:09:28.019Z,95811.50
2023-01-17T14:14:52.141Z,95832.63
2023-01-17T14:20:01.150Z,95831.44
2023-01-17T14:25:18.670Z,95849.34
2023-01-17T14:30:27.870Z,95881.34
2023-01-17T14:35:36.461Z,95898.63
2023-01-17T14:40:50.472Z,95905.75
2023-01-17T14:46:01.476Z,95923.81
2023-01-17T14:51:14.838Z,95920.00
2023-01-17T14:56:20.832Z,95931.25
2023-01-17T15:01:25.895Z,95937.78
2023-01-17T15:06:38.703Z,95939.53
2023-01-17T15:11:46.051Z,95928.97
2023-01-17T15:16:52.104Z,95920.72
2023-01-17T15:21:56.963Z,95932.78
2023-01-17T15:27:03.390Z,95933.03
2023-01-17T15:32:16.966Z,95937.22
2023-01-17T15:37:30.127Z,95940.19
2023-01-17T15:42:39.950Z,95945.56
2023-01-17T15:47:44.847Z,95943.44
2023-01-17T15:52:50.451Z,95939.88
2023-01-17T15:57:56.617Z,95948.81
2023-01-17T16:03:01.585Z,95942.34
2023-01-17T16:08:33.906Z,95934.38
2023-01-17T16:13:42.434Z,95928.78
2023-01-17T16:18:48.281Z,95923.44
2023-01-17T16:23:53.572Z,95918.31
2023-01-17T16:28:59.486Z,95918.22
2023-01-17T16:34:04.186Z,95905.91
2023-01-17T16:39:08.585Z,95894.38
2023-01-17T16:44:14.332Z,95885.06
2023-01-17T16:49:18.976Z,95881.59
2023-01-17T16:54:23.946Z,95889.03
2023-01-17T16:59:39.639Z,95890.00
2023-01-17T17:04:53.865Z,95896.09
2023-01-17T17:09:58.467Z,95890.56
2023-01-17T17:15:05.316Z,95897.09
2023-01-17T17:20:13.359Z,95890.28
2023-01-17T17:25:18.738Z,95886.59
2023-01-17T17:30:24.354Z,95877.13
2023-01-17T17:35:28.707Z,95885.31
2023-01-17T17:40:35.016Z,95894.66
2023-01-17T17:45:40.870Z,95897.41
2023-01-17T17:50:45.573Z,95896.19
2023-01-17T17:55:51.829Z,95895.69
2023-01-17T18:01:02.429Z,95901.22
2023-01-17T18:06:10.717Z,95894.72
2023-01-17T18:11:18.811Z,95901.81
2023-01-17T18:16:29.473Z,95907.59
2023-01-17T18:21:37.930Z,95923.47
2023-01-17T18:26:44.322Z,95927.34
2023-01-17T18:31:51.696Z,95948.00
2023-01-17T18:36:57.734Z,95953.03
2023-01-17T18:46:38.109Z,95967.72
2023-01-17T18:51:46.687Z,95965.28
2023-01-17T18:56:52.662Z,95965.88
2023-01-17T19:02:00.021Z,95985.66
2023-01-17T19:07:05.557Z,95981.44
2023-01-17T19:12:10.832Z,95976.25
2023-01-17T19:17:18.915Z,95979.63
2023-01-17T19:23:15.961Z,95986.19
2023-01-17T19:31:43.293Z,95980.56
2023-01-17T19:36:48.279Z,95975.28
2023-01-17T19:41:52.731Z,95971.19
2023-01-17T19:46:58.297Z,95974.72
2023-01-17T19:52:02.797Z,95946.84
2023-01-17T19:57:07.148Z,95936.53
2023-01-17T20:02:13.347Z,95930.72
2023-01-17T20:07:17.538Z,95926.19
2023-01-17T20:12:21.773Z,95918.22
2023-01-17T20:17:27.525Z,95916.69
2023-01-17T20:22:31.732Z,95926.31
2023-01-17T20:27:36.334Z,95928.81
2023-01-17T20:32:42.046Z,95920.88
2023-01-17T20:37:46.692Z,95906.09
2023-01-17T20:42:51.368Z,95900.13
2023-01-17T20:47:57.617Z,95898.03
2023-01-17T20:53:01.986Z,95889.31
2023-01-17T20:58:06.459Z,95880.88
2023-01-17T21:03:12.548Z,95874.75
2023-01-17T21:08:18.655Z,95873.16
2023-01-17T21:13:23.314Z,95862.19
2023-01-17T21:18:31.787Z,95874.28
2023-01-17T21:23:36.345Z,95884.78
2023-01-17T21:28:43.279Z,95888.84
2023-01-17T21:33:49.852Z,95886.78
2023-01-17T21:38:58.259Z,95894.22
2023-01-17T21:44:05.375Z,95893.06
2023-01-17T21:49:12.508Z,95882.69
2023-01-17T21:54:17.251Z,95882.19
2023-01-17T21:59:21.713Z,95884.75
2023-01-17T22:04:29.528Z,95897.53
2023-01-17T22:09:33.937Z,95901.97
2023-01-17T22:14:39.535Z,95900.72
2023-01-17T22:19:46.182Z,95899.03
2023-01-17T22:24:50.780Z,95891.41
2023-01-17T22:29:54.988Z,95874.41
2023-01-17T22:35:00.596Z,95873.53
2023-01-17T22:40:05.956Z,95860.31
2023-01-17T22:45:11.463Z,95844.44
2023-01-17T22:50:18.163Z,95854.63
2023-01-17T22:55:22.632Z,95850.84
2023-01-17T23:00:27.245Z,95852.00
2023-01-17T23:05:33.069Z,95832.13
2023-01-17T23:10:54.701Z,95841.56
2023-01-17T23:16:16.378Z,95820.38
2023-01-17T23:21:22.317Z,95823.91
2023-01-17T23:26:26.777Z,95805.75
2023-01-17T23:31:31.216Z,95797.69
2023-01-17T23:36:37.548Z,95790.47
2023-01-17T23:41:59.264Z,95796.69
2023-01-17T23:47:03.861Z,95799.97
2023-01-17T23:52:09.700Z,95809.72
2023-01-17T23:57:14.477Z,95779.25
